createdAt,value
2018-06-14T00:03:41.753Z,94.80
2018-06-14T00:08:36.248Z,95.00
2018-06-14T00:13:30.737Z,95.50
2018-06-14T00:18:25.181Z,96.00
2018-06-14T00:23:19.684Z,95.60
2018-06-14T00:36:48.172Z,95.60
2018-06-14T00:41:42.660Z,95.10
2018-06-14T00:46:37.099Z,95.40
2018-06-14T00:51:31.533Z,95.30
2018-06-14T00:56:26.032Z,95.50
2018-06-14T01:01:20.439Z,95.40
2018-06-14T01:06:14.905Z,95.50
2018-06-14T01:11:09.373Z,95.50
2018-06-14T01:16:03.836Z,95.70
2018-06-14T01:20:58.341Z,95.60
2018-06-14T01:25:52.778Z,95.80
2018-06-14T01:30:47.173Z,96.10
2018-06-14T01:35:41.658Z,96.30
2018-06-14T01:40:36.156Z,96.10
2018-06-14T01:45:30.638Z,96.00
2018-06-14T01:50:25.064Z,96.10
2018-06-14T01:55:19.541Z,96.00
2018-06-14T02:00:14.006Z,95.40
2018-06-14T02:05:08.488Z,95.90
2018-06-14T02:14:57.946Z,95.70
2018-06-14T02:19:52.423Z,95.20
2018-06-14T02:24:46.852Z,95.40
2018-06-14T02:29:41.309Z,95.00
2018-06-14T02:34:35.756Z,95.40
2018-06-14T02:39:30.190Z,95.10
2018-06-14T02:44:24.687Z,95.00
2018-06-14T02:49:19.101Z,95.00
2018-06-14T02:54:13.641Z,95.10
2018-06-14T02:59:08.121Z,95.50
2018-06-14T03:04:02.545Z,95.70
2018-06-14T03:13:51.126Z,95.80
2018-06-14T03:18:45.536Z,95.90
2018-06-14T03:23:40.000Z,96.10
2018-06-14T03:28:34.708Z,96.00
2018-06-14T03:33:29.105Z,95.60
2018-06-14T03:38:23.557Z,95.70
2018-06-14T03:43:17.972Z,95.50
2018-06-14T03:48:12.391Z,95.80
2018-06-14T03:53:06.884Z,95.80
2018-06-14T03:58:01.353Z,96.10
2018-06-14T04:02:55.821Z,94.90
2018-06-14T04:07:50.239Z,93.40
2018-06-14T04:12:44.641Z,91.50
2018-06-14T04:17:39.165Z,89.50
2018-06-14T04:22:33.632Z,84.90
2018-06-14T04:27:28.114Z,80.80
2018-06-14T04:32:22.576Z,77.50
2018-06-14T04:37:17.052Z,73.60
2018-06-14T04:42:11.517Z,71.10
2018-06-14T04:47:06.082Z,67.70
2018-06-14T04:52:00.573Z,64.90
2018-06-14T04:56:55.156Z,62.70
2018-06-14T05:01:49.594Z,62.80
2018-06-14T05:06:43.994Z,58.70
2018-06-14T05:11:38.492Z,56.50
2018-06-14T05:16:33.016Z,55.10
2018-06-14T05:21:27.476Z,54.10
2018-06-14T05:26:21.896Z,54.20
2018-06-14T05:31:16.392Z,52.20
2018-06-14T05:36:10.800Z,53.90
2018-06-14T05:45:59.551Z,55.90
2018-06-14T05:50:54.040Z,55.40
2018-06-14T05:55:48.452Z,53.70
2018-06-14T06:00:43.533Z,54.60
2018-06-14T06:10:32.157Z,60.80
2018-06-14T06:15:26.613Z,61.00
2018-06-14T06:20:21.299Z,59.10
2018-06-14T06:25:15.810Z,63.50
2018-06-14T06:30:10.748Z,64.90
2018-06-14T06:35:05.618Z,67.30
2018-06-14T06:40:00.265Z,71.20
2018-06-14T06:44:55.843Z,71.00
2018-06-14T06:49:51.271Z,71.30
2018-06-14T06:54:46.962Z,71.20
2018-06-14T06:59:41.663Z,74.10
2018-06-14T07:04:36.692Z,73.00
2018-06-14T07:09:32.051Z,73.10
2018-06-14T07:14:29.129Z,71.40
2018-06-14T07:19:23.564Z,71.90
2018-06-14T07:24:18.504Z,69.10
2018-06-14T07:29:17.764Z,69.90
2018-06-14T07:34:28.958Z,68.90
2018-06-14T07:39:24.195Z,66.90
2018-06-14T07:44:18.620Z,68.60
2018-06-14T07:49:13.144Z,67.10
2018-06-14T07:54:07.771Z,65.90
2018-06-14T07:59:02.206Z,66.40
2018-06-14T08:03:58.408Z,66.60
2018-06-14T08:08:52.875Z,64.70
2018-06-14T08:13:47.330Z,61.60
2018-06-14T08:18:44.380Z,57.70
2018-06-14T08:23:39.448Z,56.90
2018-06-14T08:28:33.853Z,56.70
2018-06-14T08:33:28.317Z,58.60
2018-06-14T08:43:17.339Z,60.10
2018-06-14T08:48:11.796Z,58.80
2018-06-14T08:53:06.409Z,58.60
2018-06-14T08:58:00.943Z,58.20
2018-06-14T09:02:57.612Z,59.30
2018-06-14T09:07:55.095Z,58.10
2018-06-14T09:12:49.693Z,57.50
2018-06-14T09:17:44.121Z,56.10
2018-06-14T09:22:38.556Z,54.80
2018-06-14T09:27:33.396Z,53.10
2018-06-14T09:32:27.960Z,52.00
2018-06-14T09:37:23.784Z,52.00
2018-06-14T09:42:18.263Z,52.30
2018-06-14T09:47:14.140Z,50.20
2018-06-14T09:52:09.324Z,54.60
2018-06-14T10:07:54.052Z,54.10
2018-06-14T10:12:48.481Z,55.50
2018-06-14T10:17:42.945Z,54.60
2018-06-14T10:22:37.366Z,55.00
2018-06-14T10:27:31.888Z,55.00
2018-06-14T10:37:20.663Z,53.90
2018-06-14T10:42:15.007Z,53.90
2018-06-14T10:47:13.807Z,53.90
2018-06-14T10:52:08.307Z,54.80
2018-06-14T11:06:53.133Z,53.40
2018-06-14T11:11:47.862Z,52.00
2018-06-14T11:16:46.020Z,57.00
2018-06-14T11:21:40.521Z,57.10
2018-06-14T11:26:35.003Z,56.90
2018-06-14T11:31:30.312Z,56.10
2018-06-14T11:36:25.975Z,55.20
2018-06-14T11:41:20.697Z,54.20
2018-06-14T11:46:15.533Z,53.10
2018-06-14T11:51:09.940Z,53.70
2018-06-14T11:56:04.420Z,53.50
2018-06-14T12:00:58.912Z,54.90
2018-06-14T12:05:53.438Z,55.10
2018-06-14T12:10:49.902Z,52.60
2018-06-14T12:15:45.322Z,53.10
2018-06-14T12:20:39.835Z,52.30
2018-06-14T12:25:37.646Z,54.40
2018-06-14T12:30:32.055Z,53.10
2018-06-14T12:35:26.606Z,52.00
2018-06-14T12:40:21.731Z,53.70
2018-06-14T12:50:12.109Z,50.10
2018-06-14T12:55:07.129Z,50.20
2018-06-14T13:05:03.001Z,51.30
2018-06-14T13:09:57.553Z,49.20
2018-06-14T13:14:53.097Z,52.10
2018-06-14T13:19:47.764Z,49.60
2018-06-14T13:24:44.124Z,49.00
2018-06-14T13:29:38.610Z,49.20
2018-06-14T13:34:33.394Z,50.80
2018-06-14T13:39:27.987Z,49.10
2018-06-14T13:44:22.975Z,49.90
2018-06-14T13:49:17.785Z,50.20
2018-06-14T13:54:21.531Z,51.20
2018-06-14T13:59:16.900Z,52.80
2018-06-14T14:09:10.953Z,50.60
2018-06-14T14:14:06.218Z,51.30
2018-06-14T14:19:00.961Z,51.20
2018-06-14T14:23:56.451Z,51.40
2018-06-14T14:28:50.916Z,52.10
2018-06-14T14:33:47.220Z,51.70
2018-06-14T14:39:13.485Z,51.80
2018-06-14T14:44:09.721Z,51.50
2018-06-14T14:49:04.359Z,50.80
2018-06-14T14:54:10.649Z,51.30
2018-06-14T14:59:06.940Z,52.70
2018-06-14T15:04:01.439Z,52.30
2018-06-14T15:08:56.146Z,51.20
2018-06-14T15:13:50.739Z,51.70
2018-06-14T15:18:45.252Z,49.60
2018-06-14T15:23:39.789Z,50.20
2018-06-14T15:28:34.309Z,50.60
2018-06-14T15:33:28.948Z,49.90
2018-06-14T15:38:25.649Z,48.90
2018-06-14T15:43:20.193Z,48.50
2018-06-14T15:48:14.690Z,50.90
2018-06-14T15:53:09.263Z,50.70
2018-06-14T15:58:03.757Z,50.00
2018-06-14T16:02:58.374Z,49.70
2018-06-14T16:07:52.861Z,49.10
2018-06-14T16:12:47.397Z,50.40
2018-06-14T16:17:41.888Z,49.70
2018-06-14T16:22:36.308Z,48.50
2018-06-14T16:27:30.897Z,49.80
2018-06-14T16:32:25.369Z,49.10
2018-06-14T16:42:15.085Z,48.70
2018-06-14T16:47:09.493Z,49.30
2018-06-14T16:52:03.971Z,49.80
2018-06-14T16:56:58.391Z,50.00
2018-06-14T17:01:52.908Z,49.90
2018-06-14T17:06:47.383Z,49.60
2018-06-14T17:11:42.184Z,50.40
2018-06-14T17:16:36.606Z,50.50
2018-06-14T17:21:31.009Z,49.90
2018-06-14T17:26:25.461Z,49.40
2018-06-14T17:31:19.897Z,49.80
2018-06-14T17:36:14.412Z,49.20
2018-06-14T17:46:03.050Z,49.00
2018-06-14T17:50:57.450Z,49.20
2018-06-14T17:55:52.228Z,49.30
2018-06-14T18:00:46.715Z,48.50
2018-06-14T18:05:41.120Z,49.20
2018-06-14T18:10:35.552Z,49.60
2018-06-14T18:15:29.992Z,49.50
2018-06-14T18:20:24.425Z,50.10
2018-06-14T18:25:18.855Z,50.00
2018-06-14T18:30:13.266Z,52.30
2018-06-14T18:35:07.700Z,52.50
2018-06-14T18:40:02.116Z,52.90
2018-06-14T18:44:56.548Z,54.50
2018-06-14T18:49:51.018Z,55.90
2018-06-14T18:54:45.585Z,56.80
2018-06-14T18:59:40.961Z,58.20
2018-06-14T19:04:35.437Z,59.20
2018-06-14T19:09:29.853Z,59.80
2018-06-14T19:14:24.289Z,61.70
2018-06-14T19:19:18.733Z,61.50
2018-06-14T19:24:13.225Z,64.30
2018-06-14T19:29:07.845Z,66.10
2018-06-14T19:34:02.323Z,69.50
2018-06-14T19:38:56.827Z,72.20
2018-06-14T19:43:51.273Z,74.30
2018-06-14T19:48:45.808Z,75.00
2018-06-14T19:58:34.441Z,78.20
2018-06-14T20:03:28.900Z,79.80
2018-06-14T20:08:23.357Z,80.00
2018-06-14T20:13:17.897Z,81.70
2018-06-14T20:18:12.418Z,82.60
2018-06-14T20:23:07.149Z,84.90
2018-06-14T20:28:01.728Z,83.30
2018-06-14T20:32:56.187Z,83.30
2018-06-14T20:37:50.597Z,82.50
2018-06-14T20:42:45.073Z,83.90
2018-06-14T20:47:39.529Z,84.70
2018-06-14T20:52:33.982Z,85.00
2018-06-14T20:57:28.392Z,85.10
2018-06-14T21:02:23.136Z,84.60
2018-06-14T21:07:17.785Z,83.70
2018-06-14T21:12:12.236Z,84.30
2018-06-14T21:17:06.667Z,85.90
2018-06-14T21:22:01.161Z,86.20
2018-06-14T21:26:55.627Z,88.10
2018-06-14T21:31:50.151Z,86.90
2018-06-14T21:36:45.276Z,86.20
2018-06-14T21:41:39.700Z,88.00
2018-06-14T21:46:34.292Z,87.20
2018-06-14T21:51:28.916Z,87.50
2018-06-14T21:56:23.389Z,88.00
2018-06-14T22:01:17.964Z,89.10
2018-06-14T22:11:06.705Z,90.70
2018-06-14T22:16:01.138Z,90.80
2018-06-14T22:20:55.588Z,90.70
2018-06-14T22:25:50.024Z,90.70
2018-06-14T22:30:44.496Z,90.90
2018-06-14T22:35:39.029Z,91.10
2018-06-14T22:40:33.464Z,91.30
2018-06-14T22:45:27.889Z,91.70
2018-06-14T22:50:39.183Z,91.80
2018-06-14T22:55:33.684Z,92.10
2018-06-14T23:02:36.013Z,92.60
2018-06-14T23:07:30.457Z,92.80
2018-06-14T23:12:24.889Z,93.20
2018-06-14T23:17:19.409Z,93.70
2018-06-14T23:22:13.824Z,93.90
2018-06-14T23:27:08.261Z,94.20
2018-06-14T23:32:02.668Z,94.30
2018-06-14T23:36:57.075Z,94.30
2018-06-14T23:41:51.477Z,94.40
2018-06-14T23:46:45.869Z,94.90
2018-06-14T23:51:40.273Z,94.90
2018-06-14T23:56:34.705Z,95.00
